createdAt,value
2019-04-30T00:01:33.563Z,11.12
2019-04-30T00:04:05.629Z,13.32
2019-04-30T00:06:39.313Z,13.95
2019-04-30T00:09:09.817Z,14.18
2019-04-30T00:11:37.407Z,12.43
2019-04-30T00:14:05.775Z,15.05
2019-04-30T00:16:36.339Z,12.83
2019-04-30T00:19:06.170Z,12.63
2019-04-30T00:21:36.102Z,11.18
2019-04-30T00:24:06.218Z,9.53
2019-04-30T00:26:35.441Z,11.90
2019-04-30T00:29:05.146Z,11.65
2019-04-30T00:31:34.927Z,12.58
2019-04-30T00:34:05.039Z,11.97
2019-04-30T00:36:34.304Z,13.85
2019-04-30T00:39:07.184Z,13.08
2019-04-30T00:41:39.936Z,11.15
2019-04-30T00:44:07.156Z,13.10
2019-04-30T00:46:36.393Z,13.22
2019-04-30T00:49:09.823Z,12.50
2019-04-30T00:51:35.564Z,16.37
2019-04-30T00:54:05.663Z,12.05
2019-04-30T00:56:35.537Z,11.80
2019-04-30T00:59:07.029Z,10.60
2019-04-30T01:01:43.494Z,11.53
2019-04-30T01:04:15.090Z,12.80
2019-04-30T01:06:46.259Z,10.53
2019-04-30T01:09:15.582Z,13.13
2019-04-30T01:11:47.912Z,12.70
2019-04-30T01:14:14.164Z,13.72
2019-04-30T01:16:42.606Z,13.80
2019-04-30T01:19:26.591Z,12.58
2019-04-30T01:21:46.920Z,13.08
2019-04-30T01:24:12.587Z,16.32
2019-04-30T01:26:41.063Z,15.53
2019-04-30T01:29:10.255Z,14.83
2019-04-30T01:31:40.811Z,10.80
2019-04-30T01:34:13.792Z,11.45
2019-04-30T01:36:43.437Z,11.08
2019-04-30T01:39:12.983Z,11.15
2019-04-30T01:41:41.641Z,11.73
2019-04-30T01:44:11.900Z,13.85
2019-04-30T01:46:43.250Z,13.03
2019-04-30T01:49:10.323Z,13.08
2019-04-30T01:51:38.839Z,15.63
2019-04-30T01:54:09.260Z,14.33
2019-04-30T01:56:49.883Z,13.65
2019-04-30T01:59:19.971Z,13.95
2019-04-30T02:01:50.063Z,15.03
2019-04-30T02:04:19.576Z,14.68
2019-04-30T02:06:49.433Z,14.58
2019-04-30T02:09:18.834Z,14.87
2019-04-30T02:11:48.829Z,15.40
2019-04-30T02:14:18.912Z,14.75
2019-04-30T02:16:49.315Z,13.60
2019-04-30T02:19:18.856Z,16.82
2019-04-30T02:21:48.786Z,15.30
2019-04-30T02:24:19.210Z,12.55
2019-04-30T02:26:48.506Z,18.35
2019-04-30T02:29:19.002Z,12.00
2019-04-30T02:31:47.262Z,12.82
2019-04-30T02:34:21.714Z,13.88
2019-04-30T02:36:52.136Z,12.53
2019-04-30T02:39:21.481Z,15.70
2019-04-30T02:41:50.872Z,13.40
2019-04-30T02:44:20.624Z,11.83
2019-04-30T02:46:52.941Z,13.83
2019-04-30T02:49:25.801Z,15.60
2019-04-30T02:51:59.390Z,13.80
2019-04-30T02:54:30.276Z,15.25
2019-04-30T02:57:00.377Z,16.20
2019-04-30T02:59:30.096Z,13.40
2019-04-30T03:01:59.741Z,13.90
2019-04-30T03:04:29.372Z,13.45
2019-04-30T03:06:59.779Z,15.63
2019-04-30T03:09:29.713Z,12.78
2019-04-30T03:12:00.299Z,11.70
2019-04-30T03:14:30.123Z,15.48
2019-04-30T03:17:10.580Z,17.42
2019-04-30T03:19:40.621Z,14.58
2019-04-30T03:22:20.124Z,16.52
2019-04-30T03:24:50.160Z,12.80
2019-04-30T03:27:20.472Z,14.90
2019-04-30T03:29:50.280Z,14.70
2019-04-30T03:32:22.406Z,12.47
2019-04-30T03:34:52.215Z,17.20
2019-04-30T03:37:23.425Z,15.48
2019-04-30T03:39:51.837Z,17.75
2019-04-30T03:42:20.278Z,15.37
2019-04-30T03:44:49.558Z,17.07
2019-04-30T03:47:20.251Z,18.48
2019-04-30T03:49:49.854Z,19.80
2019-04-30T03:52:19.680Z,18.27
2019-04-30T03:54:52.137Z,19.52
2019-04-30T03:57:20.787Z,18.00
2019-04-30T03:59:49.981Z,16.95
2019-04-30T04:02:30.065Z,17.15
2019-04-30T04:05:01.147Z,18.40
2019-04-30T04:07:52.564Z,18.23
2019-04-30T04:10:35.802Z,16.42
2019-04-30T04:13:04.188Z,16.35
2019-04-30T04:15:32.632Z,15.25
2019-04-30T04:18:01.086Z,16.57
2019-04-30T04:20:29.963Z,17.70
2019-04-30T04:22:59.860Z,18.10
2019-04-30T04:25:29.969Z,23.18
2019-04-30T04:28:00.333Z,19.70
2019-04-30T04:30:30.053Z,19.40
2019-04-30T04:32:59.962Z,19.23
2019-04-30T04:35:29.831Z,20.62
2019-04-30T04:38:00.383Z,16.10
2019-04-30T04:40:30.215Z,20.02
2019-04-30T04:43:00.279Z,21.57
2019-04-30T04:45:30.486Z,23.57
2019-04-30T04:48:00.065Z,22.13
2019-04-30T04:50:31.588Z,24.90
2019-04-30T04:52:59.996Z,24.60
2019-04-30T04:55:30.818Z,28.60
2019-04-30T04:57:59.874Z,29.07
2019-04-30T05:00:32.665Z,35.05
2019-04-30T05:03:05.145Z,33.75
2019-04-30T05:08:01.170Z,38.67
2019-04-30T05:10:29.606Z,33.50
2019-04-30T05:12:59.238Z,38.10
2019-04-30T05:15:29.481Z,34.27
2019-04-30T05:17:59.193Z,32.55
2019-04-30T05:20:29.191Z,37.13
2019-04-30T05:22:58.526Z,32.75
2019-04-30T05:25:27.037Z,31.87
2019-04-30T05:27:55.519Z,31.43
2019-04-30T05:30:23.918Z,32.93
2019-04-30T05:32:52.365Z,34.45
2019-04-30T05:35:20.868Z,32.85
2019-04-30T05:37:49.591Z,35.68
2019-04-30T05:40:18.876Z,32.95
2019-04-30T05:42:49.453Z,33.33
2019-04-30T05:45:19.245Z,35.17
2019-04-30T05:47:50.227Z,35.83
2019-04-30T05:50:19.802Z,31.80
2019-04-30T05:52:49.426Z,33.13
2019-04-30T05:55:19.727Z,30.23
2019-04-30T05:57:56.077Z,32.17
2019-04-30T06:00:19.708Z,31.60
2019-04-30T06:02:49.713Z,31.48
2019-04-30T06:05:18.887Z,50.50
2019-04-30T06:07:51.678Z,29.90
2019-04-30T06:10:19.680Z,28.55
2019-04-30T06:12:52.429Z,29.57
2019-04-30T06:15:25.392Z,25.43
2019-04-30T06:18:00.351Z,23.52
2019-04-30T06:20:24.723Z,25.40
2019-04-30T06:22:53.458Z,27.95
2019-04-30T06:25:31.537Z,24.43
2019-04-30T06:27:56.306Z,25.17
2019-04-30T06:30:25.738Z,23.02
2019-04-30T06:32:54.994Z,23.98
2019-04-30T06:35:24.066Z,26.20
2019-04-30T06:37:52.476Z,24.37
2019-04-30T06:40:21.070Z,26.02
2019-04-30T06:42:49.705Z,26.20
2019-04-30T06:45:19.127Z,21.97
2019-04-30T06:47:49.023Z,20.48
2019-04-30T06:50:19.372Z,19.85
2019-04-30T06:52:56.794Z,17.12
2019-04-30T06:55:21.870Z,18.98
2019-04-30T06:57:50.358Z,18.77
2019-04-30T07:00:20.667Z,20.40
2019-04-30T07:02:49.522Z,17.00
2019-04-30T07:05:18.598Z,16.37
2019-04-30T07:08:09.212Z,16.12
2019-04-30T07:10:37.441Z,19.95
2019-04-30T07:13:08.793Z,18.15
2019-04-30T07:15:38.995Z,16.40
2019-04-30T07:18:09.071Z,16.12
2019-04-30T07:20:38.748Z,18.75
2019-04-30T07:23:09.186Z,15.55
2019-04-30T07:25:39.055Z,14.93
2019-04-30T07:28:09.046Z,11.97
2019-04-30T07:30:39.479Z,13.45
2019-04-30T07:33:09.523Z,16.93
2019-04-30T07:35:39.853Z,15.55
2019-04-30T07:38:09.361Z,16.23
2019-04-30T07:40:39.057Z,16.48
2019-04-30T07:43:09.160Z,14.40
2019-04-30T07:45:39.231Z,14.23
2019-04-30T07:48:09.267Z,15.85
2019-04-30T07:50:40.480Z,15.68
2019-04-30T07:53:11.316Z,15.50
2019-04-30T07:55:39.337Z,19.82
2019-04-30T07:58:09.019Z,13.55
2019-04-30T08:00:40.341Z,18.35
2019-04-30T08:03:10.741Z,17.42
2019-04-30T08:05:41.238Z,17.25
2019-04-30T08:08:20.826Z,18.77
2019-04-30T08:10:39.791Z,18.87
2019-04-30T08:13:13.643Z,21.37
2019-04-30T08:15:42.161Z,14.85
2019-04-30T08:18:08.750Z,18.17
2019-04-30T08:20:39.213Z,18.67
2019-04-30T08:23:20.338Z,17.30
2019-04-30T08:25:39.075Z,18.20
2019-04-30T08:28:09.110Z,17.90
2019-04-30T08:30:39.143Z,17.02
2019-04-30T08:33:09.444Z,17.98
2019-04-30T08:35:39.768Z,19.45
2019-04-30T08:38:10.587Z,18.55
2019-04-30T08:40:47.253Z,17.67
2019-04-30T08:43:09.515Z,19.30
2019-04-30T08:45:38.543Z,19.92
2019-04-30T08:48:09.039Z,21.23
2019-04-30T08:50:39.302Z,21.40
2019-04-30T08:53:10.390Z,19.55
2019-04-30T08:55:39.148Z,20.60
2019-04-30T08:58:12.431Z,19.03
2019-04-30T09:00:38.577Z,20.05
2019-04-30T09:03:09.362Z,19.75
2019-04-30T09:05:39.500Z,24.45
2019-04-30T09:08:09.672Z,18.70
2019-04-30T09:10:39.331Z,19.25
2019-04-30T09:13:09.158Z,23.67
2019-04-30T09:15:37.629Z,19.00
2019-04-30T09:18:10.252Z,20.57
2019-04-30T09:20:36.210Z,22.07
2019-04-30T09:23:04.695Z,20.35
2019-04-30T09:25:33.104Z,19.23
2019-04-30T09:28:04.293Z,20.83
2019-04-30T09:30:31.714Z,20.95
2019-04-30T09:33:03.524Z,21.62
2019-04-30T09:35:32.295Z,25.23
2019-04-30T09:38:01.992Z,20.12
2019-04-30T09:40:32.493Z,21.27
2019-04-30T09:43:00.723Z,20.92
2019-04-30T09:45:29.133Z,22.87
2019-04-30T09:47:59.244Z,19.33
2019-04-30T09:50:28.955Z,21.30
2019-04-30T09:52:59.836Z,22.13
2019-04-30T09:55:29.029Z,20.20
2019-04-30T09:57:58.900Z,18.60
2019-04-30T10:00:29.311Z,19.85
2019-04-30T10:02:59.905Z,20.43
2019-04-30T10:05:29.209Z,19.80
2019-04-30T10:07:59.418Z,20.68
2019-04-30T10:10:29.578Z,21.30
2019-04-30T10:12:59.363Z,19.57
2019-04-30T10:15:35.215Z,23.25
2019-04-30T10:18:03.759Z,20.07
2019-04-30T10:20:41.785Z,25.05
2019-04-30T10:23:12.902Z,21.30
2019-04-30T10:25:41.327Z,21.37
2019-04-30T10:28:14.052Z,17.85
2019-04-30T10:30:42.511Z,24.37
2019-04-30T10:33:10.918Z,22.02
2019-04-30T10:35:41.422Z,25.12
2019-04-30T10:38:10.013Z,21.97
2019-04-30T10:40:39.691Z,22.50
2019-04-30T10:43:08.860Z,22.95
2019-04-30T10:45:38.806Z,20.75
2019-04-30T10:48:07.509Z,18.07
2019-04-30T10:50:35.926Z,22.50
2019-04-30T10:53:04.395Z,22.85
2019-04-30T10:55:32.821Z,18.23
2019-04-30T10:58:01.224Z,22.07
2019-04-30T11:00:41.986Z,19.90
2019-04-30T11:03:19.123Z,20.40
2019-04-30T11:05:41.432Z,21.73
2019-04-30T11:08:10.001Z,22.13
2019-04-30T11:10:39.902Z,21.37
2019-04-30T11:13:12.424Z,22.62
2019-04-30T11:18:09.754Z,20.40
2019-04-30T11:20:39.724Z,20.10
2019-04-30T11:23:14.695Z,19.85
2019-04-30T11:25:41.199Z,22.82
2019-04-30T11:28:09.404Z,21.00
2019-04-30T11:30:39.207Z,17.27
2019-04-30T11:33:08.213Z,19.20
2019-04-30T11:35:36.853Z,18.82
2019-04-30T11:38:05.516Z,22.40
2019-04-30T11:40:37.416Z,22.93
2019-04-30T11:43:04.307Z,18.20
2019-04-30T11:45:53.883Z,19.98
2019-04-30T11:48:22.347Z,23.55
2019-04-30T11:50:50.845Z,20.40
2019-04-30T11:53:25.383Z,19.92
2019-04-30T11:55:49.639Z,19.92
2019-04-30T11:58:21.754Z,17.07
2019-04-30T12:00:49.474Z,21.68
2019-04-30T12:03:19.128Z,20.88
2019-04-30T12:05:50.238Z,18.80
2019-04-30T12:08:39.329Z,17.60
2019-04-30T12:11:09.365Z,16.55
2019-04-30T12:13:37.770Z,17.60
2019-04-30T12:16:06.318Z,17.98
2019-04-30T12:18:38.377Z,18.30
2019-04-30T12:21:09.210Z,18.95
2019-04-30T12:23:37.621Z,18.85
2019-04-30T12:26:06.050Z,21.15
2019-04-30T12:28:34.466Z,19.65
2019-04-30T12:31:05.605Z,18.95
2019-04-30T12:33:33.019Z,16.95
2019-04-30T12:36:01.647Z,18.40
2019-04-30T12:38:32.741Z,19.15
2019-04-30T12:41:01.198Z,14.38
2019-04-30T12:43:29.605Z,14.93
2019-04-30T12:46:04.895Z,16.73
2019-04-30T12:48:39.641Z,14.83
2019-04-30T12:51:09.896Z,13.58
2019-04-30T12:53:55.060Z,15.35
2019-04-30T12:56:27.143Z,13.53
2019-04-30T12:58:55.400Z,14.10
2019-04-30T13:01:31.781Z,16.73
2019-04-30T13:04:01.449Z,19.57
2019-04-30T13:06:30.109Z,19.13
2019-04-30T13:09:03.074Z,17.75
2019-04-30T13:11:36.552Z,20.65
2019-04-30T13:14:06.280Z,16.52
2019-04-30T13:16:35.146Z,15.90
2019-04-30T13:19:03.622Z,20.23
2019-04-30T13:21:32.033Z,19.17
2019-04-30T13:24:00.457Z,21.57
2019-04-30T13:26:28.878Z,18.93
2019-04-30T13:28:58.939Z,18.73
2019-04-30T13:31:29.410Z,15.90
2019-04-30T13:34:03.102Z,17.32
2019-04-30T13:36:31.563Z,14.87
2019-04-30T13:39:02.695Z,16.52
2019-04-30T13:41:43.044Z,17.90
2019-04-30T13:44:12.642Z,15.10
2019-04-30T13:46:42.161Z,17.40
2019-04-30T13:49:10.574Z,14.90
2019-04-30T13:51:38.998Z,14.35
2019-04-30T13:54:11.275Z,21.07
2019-04-30T13:56:39.833Z,17.53
2019-04-30T13:59:08.279Z,16.17
2019-04-30T14:01:38.946Z,16.87
2019-04-30T14:04:18.111Z,14.18
2019-04-30T14:07:08.561Z,14.85
2019-04-30T14:09:36.983Z,16.57
2019-04-30T14:12:05.633Z,16.35
2019-04-30T14:14:34.064Z,18.77
2019-04-30T14:17:03.889Z,18.10
2019-04-30T14:19:32.367Z,20.72
2019-04-30T14:22:00.803Z,16.42
2019-04-30T14:24:29.198Z,19.73
2019-04-30T14:27:01.324Z,15.37
2019-04-30T14:29:30.208Z,14.60
2019-04-30T14:31:59.607Z,19.17
2019-04-30T14:34:28.709Z,20.02
2019-04-30T14:36:59.180Z,16.75
2019-04-30T14:39:29.237Z,18.55
2019-04-30T14:42:02.287Z,17.23
2019-04-30T14:44:33.521Z,15.53
2019-04-30T14:47:11.909Z,13.60
2019-04-30T14:49:41.501Z,18.07
2019-04-30T14:52:11.227Z,16.15
2019-04-30T14:54:41.364Z,17.52
2019-04-30T14:57:13.193Z,16.12
2019-04-30T14:59:49.513Z,19.40
2019-04-30T15:02:34.944Z,15.35
2019-04-30T15:05:04.538Z,20.50
2019-04-30T15:07:34.038Z,16.15
2019-04-30T15:10:02.707Z,13.58
2019-04-30T15:12:31.111Z,20.20
2019-04-30T15:14:59.521Z,16.87
2019-04-30T15:17:27.962Z,15.30
2019-04-30T15:19:58.786Z,17.55
2019-04-30T15:22:29.094Z,17.70
2019-04-30T15:25:00.403Z,17.50
2019-04-30T15:27:29.027Z,17.30
2019-04-30T15:29:57.572Z,32.53
2019-04-30T15:32:26.030Z,35.25
2019-04-30T15:34:55.507Z,30.23
2019-04-30T15:37:24.144Z,34.23
2019-04-30T15:39:52.566Z,36.98
2019-04-30T15:42:23.783Z,34.58
2019-04-30T15:44:52.218Z,37.23
2019-04-30T15:47:22.461Z,36.33
2019-04-30T15:49:50.925Z,37.50
2019-04-30T15:52:22.881Z,33.83
2019-04-30T15:54:51.355Z,34.63
2019-04-30T15:57:23.453Z,40.33
2019-04-30T15:59:51.927Z,31.02
2019-04-30T16:02:29.079Z,35.08
2019-04-30T16:05:17.615Z,30.80
2019-04-30T16:07:49.218Z,31.70
2019-04-30T16:10:23.606Z,27.60
2019-04-30T16:12:53.654Z,25.32
2019-04-30T16:15:22.103Z,25.48
2019-04-30T16:17:52.168Z,26.17
2019-04-30T16:20:24.203Z,23.67
2019-04-30T16:22:52.735Z,27.15
2019-04-30T16:25:21.175Z,24.77
2019-04-30T16:27:49.619Z,28.38
2019-04-30T16:30:19.544Z,26.50
2019-04-30T16:32:50.485Z,25.17
2019-04-30T16:35:21.017Z,34.85
2019-04-30T16:37:49.703Z,32.80
2019-04-30T16:40:19.009Z,32.88
2019-04-30T16:42:48.983Z,31.90
2019-04-30T16:45:19.452Z,33.90
2019-04-30T16:47:48.066Z,29.95
2019-04-30T16:50:18.703Z,33.85
2019-04-30T16:52:46.968Z,34.23
2019-04-30T16:55:15.484Z,29.85
2019-04-30T16:57:43.898Z,29.87
2019-04-30T17:00:15.486Z,31.60
2019-04-30T17:02:46.534Z,29.63
2019-04-30T17:05:23.137Z,40.63
2019-04-30T17:08:05.194Z,33.33
2019-04-30T17:10:39.385Z,32.67
2019-04-30T17:13:25.768Z,32.05
2019-04-30T17:15:55.825Z,29.42
2019-04-30T17:18:24.230Z,29.90
2019-04-30T17:20:55.128Z,30.05
2019-04-30T17:23:23.609Z,35.80
2019-04-30T17:25:52.042Z,25.65
2019-04-30T17:28:20.456Z,30.62
2019-04-30T17:30:51.408Z,29.32
2019-04-30T17:33:19.817Z,29.67
2019-04-30T17:35:49.880Z,30.97
2019-04-30T17:38:18.452Z,28.07
2019-04-30T17:40:49.478Z,26.77
2019-04-30T17:43:17.012Z,28.85
2019-04-30T17:45:45.435Z,33.95
2019-04-30T17:48:13.875Z,26.67
2019-04-30T17:50:42.305Z,30.77
2019-04-30T17:53:10.704Z,27.40
2019-04-30T17:55:39.266Z,29.18
2019-04-30T17:58:09.567Z,24.85
2019-04-30T18:00:39.632Z,25.43
2019-04-30T18:03:08.864Z,27.50
2019-04-30T18:05:39.130Z,33.75
2019-04-30T18:08:07.910Z,35.50
2019-04-30T18:10:43.399Z,44.38
2019-04-30T18:13:11.892Z,44.03
2019-04-30T18:15:42.776Z,50.58
2019-04-30T18:18:18.672Z,46.65
2019-04-30T18:20:50.067Z,51.75
2019-04-30T18:23:36.101Z,56.10
2019-04-30T18:26:08.833Z,51.02
2019-04-30T18:28:37.237Z,50.05
2019-04-30T18:31:08.855Z,54.48
2019-04-30T18:33:40.330Z,54.17
2019-04-30T18:36:09.590Z,52.35
2019-04-30T18:38:39.197Z,48.63
2019-04-30T18:41:09.470Z,50.67
2019-04-30T18:43:40.351Z,51.98
2019-04-30T18:46:10.604Z,52.00
2019-04-30T18:48:39.352Z,53.17
2019-04-30T18:51:23.732Z,52.17
2019-04-30T18:53:39.732Z,54.90
2019-04-30T18:56:13.928Z,51.05
2019-04-30T18:58:56.013Z,54.23
2019-04-30T19:01:43.040Z,55.13
2019-04-30T19:04:02.031Z,51.98
2019-04-30T19:06:45.358Z,47.10
2019-04-30T19:09:16.078Z,54.88
2019-04-30T19:11:51.202Z,51.80
2019-04-30T19:14:21.255Z,56.70
2019-04-30T19:17:02.530Z,54.00
2019-04-30T19:19:49.235Z,53.98
2019-04-30T19:22:18.704Z,53.15
2019-04-30T19:24:56.125Z,55.25
2019-04-30T19:27:24.819Z,57.33
2019-04-30T19:29:53.768Z,57.50
2019-04-30T19:32:24.496Z,53.85
2019-04-30T19:34:53.087Z,61.13
2019-04-30T19:37:21.778Z,58.83
2019-04-30T19:39:51.113Z,56.10
2019-04-30T19:42:22.028Z,59.10
2019-04-30T19:44:58.982Z,58.42
2019-04-30T19:47:30.689Z,60.57
2019-04-30T19:50:14.112Z,58.87
2019-04-30T19:52:44.073Z,61.60
2019-04-30T19:55:15.392Z,65.55
2019-04-30T19:57:48.378Z,65.00
2019-04-30T20:00:17.298Z,65.37
2019-04-30T20:02:46.230Z,71.25
2019-04-30T20:05:14.717Z,72.47
2019-04-30T20:07:44.702Z,78.97
2019-04-30T20:10:13.452Z,68.85
2019-04-30T20:12:42.089Z,85.28
2019-04-30T20:15:19.353Z,80.17
2019-04-30T20:17:41.130Z,88.00
2019-04-30T20:20:09.902Z,84.10
2019-04-30T20:22:38.927Z,84.92
2019-04-30T20:25:12.071Z,86.50
2019-04-30T20:27:39.776Z,88.47
2019-04-30T20:30:14.983Z,94.15
2019-04-30T20:32:42.720Z,88.47
2019-04-30T20:35:11.249Z,88.33
2019-04-30T20:37:59.460Z,87.60
2019-04-30T20:40:42.646Z,85.38
2019-04-30T20:43:57.752Z,83.45
2019-04-30T20:46:34.817Z,86.60
2019-04-30T20:48:59.639Z,91.12
2019-04-30T20:51:29.104Z,91.23
2019-04-30T20:53:59.203Z,86.05
2019-04-30T20:56:29.143Z,85.13
2019-04-30T20:59:02.355Z,92.20
2019-04-30T21:01:29.381Z,87.88
2019-04-30T21:03:58.057Z,86.00
2019-04-30T21:06:26.451Z,96.47
2019-04-30T21:08:54.927Z,90.57
2019-04-30T21:11:23.443Z,95.17
2019-04-30T21:13:51.859Z,100.35
2019-04-30T21:16:20.281Z,103.27
2019-04-30T21:18:52.541Z,105.45
2019-04-30T21:21:22.042Z,115.60
2019-04-30T21:23:50.495Z,118.02
2019-04-30T21:26:19.633Z,122.93
2019-04-30T21:28:49.459Z,128.20
2019-04-30T21:31:37.415Z,119.63
2019-04-30T21:34:13.464Z,123.55
2019-04-30T21:36:41.886Z,126.90
2019-04-30T21:39:10.921Z,131.18
2019-04-30T21:41:39.607Z,131.05
2019-04-30T21:44:08.131Z,136.40
2019-04-30T21:46:40.374Z,133.95
2019-04-30T21:49:08.974Z,146.93
2019-04-30T21:51:39.971Z,150.80
2019-04-30T21:54:07.711Z,146.02
2019-04-30T21:56:36.839Z,144.82
2019-04-30T21:59:07.988Z,143.90
2019-04-30T22:01:35.627Z,147.60
2019-04-30T22:04:04.294Z,142.37
2019-04-30T22:06:32.726Z,147.20
2019-04-30T22:09:02.631Z,144.47
2019-04-30T22:11:31.041Z,138.22
2019-04-30T22:14:09.919Z,144.57
2019-04-30T22:16:40.858Z,139.43
2019-04-30T22:19:09.444Z,142.40
2019-04-30T22:21:39.594Z,146.50
2019-04-30T22:24:08.170Z,140.15
2019-04-30T22:26:38.033Z,144.90
2019-04-30T22:29:06.480Z,139.55
2019-04-30T22:31:34.944Z,137.12
2019-04-30T22:34:06.081Z,138.90
2019-04-30T22:36:36.176Z,136.52
2019-04-30T22:39:24.865Z,136.18
2019-04-30T22:42:01.417Z,138.10
2019-04-30T22:44:29.899Z,138.43
2019-04-30T22:47:00.261Z,138.45
2019-04-30T22:49:28.441Z,134.05
2019-04-30T22:51:56.918Z,128.65
2019-04-30T22:54:25.400Z,126.07
2019-04-30T22:56:53.840Z,122.47
2019-04-30T22:59:22.720Z,126.75
2019-04-30T23:02:01.581Z,122.65
2019-04-30T23:04:31.638Z,126.38
2019-04-30T23:07:00.056Z,118.62
2019-04-30T23:09:28.692Z,119.93
2019-04-30T23:11:57.124Z,116.40
2019-04-30T23:14:25.568Z,122.87
2019-04-30T23:16:53.977Z,125.20
2019-04-30T23:19:23.682Z,118.53
2019-04-30T23:21:52.110Z,120.00
2019-04-30T23:24:20.549Z,111.90
2019-04-30T23:26:48.986Z,105.70
2019-04-30T23:29:17.475Z,108.47
2019-04-30T23:31:48.356Z,103.87
2019-04-30T23:34:18.308Z,108.83
2019-04-30T23:36:47.484Z,108.70
2019-04-30T23:39:16.052Z,102.50
2019-04-30T23:41:44.466Z,101.10
2019-04-30T23:44:13.523Z,105.83
2019-04-30T23:46:41.973Z,97.27
2019-04-30T23:49:10.429Z,98.25
2019-04-30T23:51:38.948Z,94.28
2019-04-30T23:54:07.378Z,95.38
2019-04-30T23:56:35.792Z,86.47
2019-04-30T23:59:04.298Z,88.85
